sensor_id;sensor_type;location;lat;lon;timestamp;temperature;humidity
64718;DHT22;62506;46.070;14.492;2022-09-09T00:02:24;24.60;66.00
64718;DHT22;62506;46.070;14.492;2022-09-09T00:07:43;24.60;66.00
64718;DHT22;62506;46.070;14.492;2022-09-09T00:15:17;24.60;66.90
64718;DHT22;62506;46.070;14.492;2022-09-09T00:23:12;24.60;66.00
64718;DHT22;62506;46.070;14.492;2022-09-09T00:28:13;24.60;66.00
64718;DHT22;62506;46.070;14.492;2022-09-09T00:30:42;24.60;66.00
64718;DHT22;62506;46.070;14.492;2022-09-09T00:33:10;24.60;65.90
64718;DHT22;62506;46.070;14.492;2022-09-09T00:35:38;24.60;65.90
64718;DHT22;62506;46.070;14.492;2022-09-09T00:38:15;24.60;65.80
64718;DHT22;62506;46.070;14.492;2022-09-09T00:40:45;24.60;65.90
64718;DHT22;62506;46.070;14.492;2022-09-09T00:43:28;24.60;65.80
64718;DHT22;62506;46.070;14.492;2022-09-09T00:48:23;24.60;65.60
64718;DHT22;62506;46.070;14.492;2022-09-09T00:50:57;24.60;65.60
64718;DHT22;62506;46.070;14.492;2022-09-09T00:56:20;24.60;65.60
64718;DHT22;62506;46.070;14.492;2022-09-09T00:58:53;24.60;65.60
64718;DHT22;62506;46.070;14.492;2022-09-09T01:01:23;24.60;65.60
64718;DHT22;62506;46.070;14.492;2022-09-09T01:03:58;24.60;65.60
64718;DHT22;62506;46.070;14.492;2022-09-09T01:06:30;24.60;65.50
64718;DHT22;62506;46.070;14.492;2022-09-09T01:11:42;24.60;65.50
64718;DHT22;62506;46.070;14.492;2022-09-09T01:16:37;24.60;65.50
64718;DHT22;62506;46.070;14.492;2022-09-09T01:19:03;24.60;65.50
64718;DHT22;62506;46.070;14.492;2022-09-09T01:21:46;24.60;65.60
64718;DHT22;62506;46.070;14.492;2022-09-09T01:26:42;24.60;65.50
64718;DHT22;62506;46.070;14.492;2022-09-09T01:29:09;24.60;65.50
64718;DHT22;62506;46.070;14.492;2022-09-09T01:31:39;24.60;65.50
64718;DHT22;62506;46.070;14.492;2022-09-09T01:34:10;24.60;65.50
64718;DHT22;62506;46.070;14.492;2022-09-09T01:36:41;24.60;65.50
64718;DHT22;62506;46.070;14.492;2022-09-09T01:39:08;24.60;66.30
64718;DHT22;62506;46.070;14.492;2022-09-09T01:41:33;24.60;65.50
64718;DHT22;62506;46.070;14.492;2022-09-09T01:44:06;24.60;65.50
64718;DHT22;62506;46.070;14.492;2022-09-09T01:46:32;24.60;65.60
64718;DHT22;62506;46.070;14.492;2022-09-09T01:48:58;24.60;65.60
64718;DHT22;62506;46.070;14.492;2022-09-09T01:51:24;24.60;65.60
64718;DHT22;62506;46.070;14.492;2022-09-09T01:53:49;24.60;65.70
64718;DHT22;62506;46.070;14.492;2022-09-09T01:56:18;24.60;65.80
64718;DHT22;62506;46.070;14.492;2022-09-09T02:03:58;24.50;65.90
64718;DHT22;62506;46.070;14.492;2022-09-09T02:06:34;24.50;65.70
64718;DHT22;62506;46.070;14.492;2022-09-09T02:09:02;24.50;65.90
64718;DHT22;62506;46.070;14.492;2022-09-09T02:11:29;24.50;65.80
64718;DHT22;62506;46.070;14.492;2022-09-09T02:13:57;24.50;65.80
64718;DHT22;62506;46.070;14.492;2022-09-09T02:21:18;24.50;65.80
64718;DHT22;62506;46.070;14.492;2022-09-09T02:23:43;24.50;65.80
64718;DHT22;62506;46.070;14.492;2022-09-09T02:26:12;24.50;65.80
64718;DHT22;62506;46.070;14.492;2022-09-09T02:28:43;24.50;65.80
64718;DHT22;62506;46.070;14.492;2022-09-09T02:31:08;24.50;65.80
64718;DHT22;62506;46.070;14.492;2022-09-09T02:33:37;24.50;65.90
64718;DHT22;62506;46.070;14.492;2022-09-09T02:36:04;24.50;65.90
64718;DHT22;62506;46.070;14.492;2022-09-09T02:38:33;24.50;65.80
64718;DHT22;62506;46.070;14.492;2022-09-09T02:41:00;24.50;65.90
64718;DHT22;62506;46.070;14.492;2022-09-09T02:43:33;24.50;65.80
64718;DHT22;62506;46.070;14.492;2022-09-09T02:48:27;24.50;66.00
64718;DHT22;62506;46.070;14.492;2022-09-09T02:53:39;24.50;65.60
64718;DHT22;62506;46.070;14.492;2022-09-09T02:56:13;24.50;65.60
64718;DHT22;62506;46.070;14.492;2022-09-09T02:58:40;24.50;65.60
64718;DHT22;62506;46.070;14.492;2022-09-09T03:01:05;24.50;65.60
64718;DHT22;62506;46.070;14.492;2022-09-09T03:03:31;24.50;65.70
64718;DHT22;62506;46.070;14.492;2022-09-09T03:05:57;24.50;65.50
64718;DHT22;62506;46.070;14.492;2022-09-09T03:08:22;24.60;65.60
64718;DHT22;62506;46.070;14.492;2022-09-09T03:10:48;24.60;65.40
64718;DHT22;62506;46.070;14.492;2022-09-09T03:13:14;24.60;65.40
64718;DHT22;62506;46.070;14.492;2022-09-09T03:15:40;24.60;65.30
64718;DHT22;62506;46.070;14.492;2022-09-09T03:18:06;24.60;65.50
64718;DHT22;62506;46.070;14.492;2022-09-09T03:20:31;24.60;65.30
64718;DHT22;62506;46.070;14.492;2022-09-09T03:22:57;24.60;65.30
64718;DHT22;62506;46.070;14.492;2022-09-09T03:25:23;24.60;65.30
64718;DHT22;62506;46.070;14.492;2022-09-09T03:27:49;24.60;65.30
64718;DHT22;62506;46.070;14.492;2022-09-09T03:30:15;24.60;65.30
64718;DHT22;62506;46.070;14.492;2022-09-09T03:32:40;24.60;65.30
64718;DHT22;62506;46.070;14.492;2022-09-09T03:35:06;24.60;65.30
64718;DHT22;62506;46.070;14.492;2022-09-09T03:37:32;24.60;65.20
64718;DHT22;62506;46.070;14.492;2022-09-09T03:39:57;24.60;65.30
64718;DHT22;62506;46.070;14.492;2022-09-09T03:42:23;24.60;65.20
64718;DHT22;62506;46.070;14.492;2022-09-09T03:44:48;24.60;65.10
64718;DHT22;62506;46.070;14.492;2022-09-09T03:47:18;24.60;65.10
64718;DHT22;62506;46.070;14.492;2022-09-09T03:49:45;24.60;65.30
64718;DHT22;62506;46.070;14.492;2022-09-09T03:52:10;24.60;65.20
64718;DHT22;62506;46.070;14.492;2022-09-09T03:54:36;24.60;65.30
64718;DHT22;62506;46.070;14.492;2022-09-09T03:57:02;24.60;65.20
64718;DHT22;62506;46.070;14.492;2022-09-09T03:59:27;24.60;65.30
64718;DHT22;62506;46.070;14.492;2022-09-09T04:01:53;24.60;65.40
64718;DHT22;62506;46.070;14.492;2022-09-09T04:04:18;24.60;65.40
64718;DHT22;62506;46.070;14.492;2022-09-09T04:06:45;24.60;65.50
64718;DHT22;62506;46.070;14.492;2022-09-09T04:09:11;24.60;65.60
64718;DHT22;62506;46.070;14.492;2022-09-09T04:11:36;24.60;65.50
64718;DHT22;62506;46.070;14.492;2022-09-09T04:14:02;24.60;65.60
64718;DHT22;62506;46.070;14.492;2022-09-09T04:16:28;24.60;65.50
64718;DHT22;62506;46.070;14.492;2022-09-09T04:18:54;24.60;65.60
64718;DHT22;62506;46.070;14.492;2022-09-09T04:21:21;24.60;65.60
64718;DHT22;62506;46.070;14.492;2022-09-09T04:23:46;24.60;65.70
64718;DHT22;62506;46.070;14.492;2022-09-09T04:26:12;24.60;65.70
64718;DHT22;62506;46.070;14.492;2022-09-09T04:28:37;24.60;65.70
64718;DHT22;62506;46.070;14.492;2022-09-09T04:31:04;24.50;65.60
64718;DHT22;62506;46.070;14.492;2022-09-09T04:33:29;24.60;65.70
64718;DHT22;62506;46.070;14.492;2022-09-09T04:35:56;24.50;65.70
64718;DHT22;62506;46.070;14.492;2022-09-09T04:38:22;24.40;65.30
64718;DHT22;62506;46.070;14.492;2022-09-09T04:40:48;24.30;65.10
64718;DHT22;62506;46.070;14.492;2022-09-09T04:43:14;24.20;65.20
64718;DHT22;62506;46.070;14.492;2022-09-09T04:45:40;24.10;65.40
64718;DHT22;62506;46.070;14.492;2022-09-09T04:48:06;24.00;65.60
64718;DHT22;62506;46.070;14.492;2022-09-09T04:50:31;24.00;65.80
64718;DHT22;62506;46.070;14.492;2022-09-09T04:52:59;23.90;65.80
64718;DHT22;62506;46.070;14.492;2022-09-09T04:55:25;23.80;66.20
64718;DHT22;62506;46.070;14.492;2022-09-09T04:57:50;23.80;66.40
64718;DHT22;62506;46.070;14.492;2022-09-09T05:00:16;23.70;66.30
64718;DHT22;62506;46.070;14.492;2022-09-09T05:02:42;23.70;66.20
64718;DHT22;62506;46.070;14.492;2022-09-09T05:05:08;23.70;66.20
64718;DHT22;62506;46.070;14.492;2022-09-09T05:07:33;23.60;66.20
64718;DHT22;62506;46.070;14.492;2022-09-09T05:09:59;23.60;66.30
64718;DHT22;62506;46.070;14.492;2022-09-09T05:12:24;23.60;66.20
64718;DHT22;62506;46.070;14.492;2022-09-09T05:14:51;23.50;66.00
64718;DHT22;62506;46.070;14.492;2022-09-09T05:17:16;23.60;66.20
64718;DHT22;62506;46.070;14.492;2022-09-09T05:19:42;23.70;66.50
64718;DHT22;62506;46.070;14.492;2022-09-09T05:22:08;23.90;66.40
64718;DHT22;62506;46.070;14.492;2022-09-09T05:24:33;23.90;66.00
64718;DHT22;62506;46.070;14.492;2022-09-09T05:26:59;24.00;66.00
64718;DHT22;62506;46.070;14.492;2022-09-09T05:29:27;24.10;66.10
64718;DHT22;62506;46.070;14.492;2022-09-09T05:31:53;24.10;65.80
64718;DHT22;62506;46.070;14.492;2022-09-09T05:34:18;24.20;66.00
64718;DHT22;62506;46.070;14.492;2022-09-09T05:36:44;24.20;65.90
64718;DHT22;62506;46.070;14.492;2022-09-09T05:39:10;24.10;64.80
64718;DHT22;62506;46.070;14.492;2022-09-09T05:41:37;24.10;65.30
64718;DHT22;62506;46.070;14.492;2022-09-09T05:44:02;24.10;65.30
64718;DHT22;62506;46.070;14.492;2022-09-09T05:46:28;24.20;65.60
64718;DHT22;62506;46.070;14.492;2022-09-09T05:48:54;24.20;65.90
64718;DHT22;62506;46.070;14.492;2022-09-09T05:51:24;24.30;66.20
64718;DHT22;62506;46.070;14.492;2022-09-09T05:53:50;24.30;67.50
64718;DHT22;62506;46.070;14.492;2022-09-09T05:56:17;24.20;66.50
64718;DHT22;62506;46.070;14.492;2022-09-09T05:58:43;24.20;66.60
64718;DHT22;62506;46.070;14.492;2022-09-09T06:01:10;24.20;66.70
64718;DHT22;62506;46.070;14.492;2022-09-09T06:03:36;24.20;66.50
64718;DHT22;62506;46.070;14.492;2022-09-09T06:06:03;24.20;66.50
64718;DHT22;62506;46.070;14.492;2022-09-09T06:08:35;24.30;66.50
64718;DHT22;62506;46.070;14.492;2022-09-09T06:13:32;24.30;66.60
64718;DHT22;62506;46.070;14.492;2022-09-09T06:15:57;24.30;66.50
64718;DHT22;62506;46.070;14.492;2022-09-09T06:18:24;24.30;66.40
64718;DHT22;62506;46.070;14.492;2022-09-09T06:20:56;24.30;66.40
64718;DHT22;62506;46.070;14.492;2022-09-09T06:23:22;24.30;66.40
64718;DHT22;62506;46.070;14.492;2022-09-09T06:25:48;24.30;66.30
64718;DHT22;62506;46.070;14.492;2022-09-09T06:28:14;24.30;66.20
64718;DHT22;62506;46.070;14.492;2022-09-09T06:30:42;24.30;66.20
64718;DHT22;62506;46.070;14.492;2022-09-09T06:33:08;24.30;66.30
64718;DHT22;62506;46.070;14.492;2022-09-09T06:35:34;24.30;66.20
64718;DHT22;62506;46.070;14.492;2022-09-09T06:38:00;24.30;66.20
64718;DHT22;62506;46.070;14.492;2022-09-09T06:40:25;24.30;66.20
64718;DHT22;62506;46.070;14.492;2022-09-09T06:42:51;24.30;66.20
64718;DHT22;62506;46.070;14.492;2022-09-09T06:45:16;24.30;66.20
64718;DHT22;62506;46.070;14.492;2022-09-09T06:47:43;24.30;66.20
64718;DHT22;62506;46.070;14.492;2022-09-09T06:50:08;24.30;66.00
64718;DHT22;62506;46.070;14.492;2022-09-09T06:52:35;24.30;66.00
64718;DHT22;62506;46.070;14.492;2022-09-09T06:55:01;24.30;66.10
64718;DHT22;62506;46.070;14.492;2022-09-09T06:57:26;24.30;66.10
64718;DHT22;62506;46.070;14.492;2022-09-09T06:59:52;24.30;66.20
64718;DHT22;62506;46.070;14.492;2022-09-09T07:02:17;24.30;66.20
64718;DHT22;62506;46.070;14.492;2022-09-09T07:04:43;24.30;66.10
64718;DHT22;62506;46.070;14.492;2022-09-09T07:07:09;24.30;66.00
64718;DHT22;62506;46.070;14.492;2022-09-09T07:09:37;24.30;66.00
64718;DHT22;62506;46.070;14.492;2022-09-09T07:12:02;24.30;66.00
64718;DHT22;62506;46.070;14.492;2022-09-09T07:14:31;24.30;66.00
64718;DHT22;62506;46.070;14.492;2022-09-09T07:16:56;24.30;66.00
64718;DHT22;62506;46.070;14.492;2022-09-09T07:19:22;24.30;66.00
64718;DHT22;62506;46.070;14.492;2022-09-09T07:21:47;24.30;65.90
64718;DHT22;62506;46.070;14.492;2022-09-09T07:24:16;24.40;66.00
64718;DHT22;62506;46.070;14.492;2022-09-09T07:26:42;24.40;66.00
64718;DHT22;62506;46.070;14.492;2022-09-09T07:29:07;24.40;65.90
64718;DHT22;62506;46.070;14.492;2022-09-09T07:31:34;24.40;66.00
64718;DHT22;62506;46.070;14.492;2022-09-09T07:34:01;24.40;66.70
64718;DHT22;62506;46.070;14.492;2022-09-09T07:36:34;24.40;65.90
64718;DHT22;62506;46.070;14.492;2022-09-09T07:39:01;24.40;65.70
64718;DHT22;62506;46.070;14.492;2022-09-09T07:41:28;24.40;65.90
64718;DHT22;62506;46.070;14.492;2022-09-09T07:43:54;24.40;65.80
64718;DHT22;62506;46.070;14.492;2022-09-09T07:46:20;24.40;65.80
64718;DHT22;62506;46.070;14.492;2022-09-09T07:48:49;24.40;65.70
64718;DHT22;62506;46.070;14.492;2022-09-09T07:51:20;24.40;65.90
64718;DHT22;62506;46.070;14.492;2022-09-09T07:53:47;24.40;65.70
64718;DHT22;62506;46.070;14.492;2022-09-09T07:56:14;24.40;65.70
64718;DHT22;62506;46.070;14.492;2022-09-09T07:58:42;24.40;66.00
64718;DHT22;62506;46.070;14.492;2022-09-09T08:01:10;24.40;65.60
64718;DHT22;62506;46.070;14.492;2022-09-09T08:03:36;24.40;65.70
64718;DHT22;62506;46.070;14.492;2022-09-09T08:06:02;24.40;65.50
64718;DHT22;62506;46.070;14.492;2022-09-09T08:08:28;24.40;65.50
64718;DHT22;62506;46.070;14.492;2022-09-09T08:11:00;24.40;65.40
64718;DHT22;62506;46.070;14.492;2022-09-09T08:13:26;24.40;65.50
64718;DHT22;62506;46.070;14.492;2022-09-09T08:15:52;24.40;65.50
64718;DHT22;62506;46.070;14.492;2022-09-09T08:18:18;24.40;65.50
64718;DHT22;62506;46.070;14.492;2022-09-09T08:20:43;24.40;65.50
64718;DHT22;62506;46.070;14.492;2022-09-09T08:23:08;24.40;65.60
64718;DHT22;62506;46.070;14.492;2022-09-09T08:25:34;24.40;65.50
64718;DHT22;62506;46.070;14.492;2022-09-09T08:27:59;24.40;65.40
64718;DHT22;62506;46.070;14.492;2022-09-09T08:30:25;24.40;65.30
64718;DHT22;62506;46.070;14.492;2022-09-09T08:32:51;24.40;65.30
64718;DHT22;62506;46.070;14.492;2022-09-09T08:35:17;24.40;65.30
64718;DHT22;62506;46.070;14.492;2022-09-09T08:37:42;24.40;65.20
64718;DHT22;62506;46.070;14.492;2022-09-09T08:40:22;24.40;65.30
64718;DHT22;62506;46.070;14.492;2022-09-09T08:42:51;24.40;65.20
64718;DHT22;62506;46.070;14.492;2022-09-09T08:55:26;24.40;65.20
64718;DHT22;62506;46.070;14.492;2022-09-09T08:57:53;24.40;65.20
64718;DHT22;62506;46.070;14.492;2022-09-09T09:00:20;24.40;65.20
64718;DHT22;62506;46.070;14.492;2022-09-09T09:02:54;24.40;65.20
64718;DHT22;62506;46.070;14.492;2022-09-09T09:05:27;24.40;65.30
64718;DHT22;62506;46.070;14.492;2022-09-09T09:10:36;24.40;65.50
64718;DHT22;62506;46.070;14.492;2022-09-09T09:13:06;24.40;65.20
64718;DHT22;62506;46.070;14.492;2022-09-09T09:15:35;24.40;65.30
64718;DHT22;62506;46.070;14.492;2022-09-09T09:18:02;24.40;65.30
64718;DHT22;62506;46.070;14.492;2022-09-09T09:20:32;24.40;65.20
64718;DHT22;62506;46.070;14.492;2022-09-09T09:22:59;24.40;65.20
64718;DHT22;62506;46.070;14.492;2022-09-09T09:25:34;24.40;65.20
64718;DHT22;62506;46.070;14.492;2022-09-09T09:28:15;24.40;65.20
64718;DHT22;62506;46.070;14.492;2022-09-09T09:30:49;24.40;65.20
64718;DHT22;62506;46.070;14.492;2022-09-09T09:33:19;24.40;65.20
64718;DHT22;62506;46.070;14.492;2022-09-09T09:35:46;24.40;65.20
64718;DHT22;62506;46.070;14.492;2022-09-09T09:40:49;24.40;65.40
64718;DHT22;62506;46.070;14.492;2022-09-09T09:43:26;24.40;65.40
64718;DHT22;62506;46.070;14.492;2022-09-09T09:45:52;24.40;65.20
64718;DHT22;62506;46.070;14.492;2022-09-09T09:48:18;24.40;65.20
64718;DHT22;62506;46.070;14.492;2022-09-09T09:50:50;24.40;65.20
64718;DHT22;62506;46.070;14.492;2022-09-09T09:53:21;24.40;65.10
64718;DHT22;62506;46.070;14.492;2022-09-09T09:55:52;24.40;61.90
64718;DHT22;62506;46.070;14.492;2022-09-09T09:58:18;24.30;59.10
64718;DHT22;62506;46.070;14.492;2022-09-09T10:00:47;24.20;59.10
64718;DHT22;62506;46.070;14.492;2022-09-09T10:05:52;24.10;60.20
64718;DHT22;62506;46.070;14.492;2022-09-09T10:08:18;24.10;60.50
64718;DHT22;62506;46.070;14.492;2022-09-09T10:18:43;24.30;61.40
64718;DHT22;62506;46.070;14.492;2022-09-09T10:26:21;24.30;62.00
64718;DHT22;62506;46.070;14.492;2022-09-09T10:33:46;24.30;62.40
64718;DHT22;62506;46.070;14.492;2022-09-09T10:36:17;24.30;62.40
64718;DHT22;62506;46.070;14.492;2022-09-09T10:38:56;24.30;62.50
64718;DHT22;62506;46.070;14.492;2022-09-09T10:56:43;24.40;62.70
64718;DHT22;62506;46.070;14.492;2022-09-09T10:59:12;24.40;61.30
64718;DHT22;62506;46.070;14.492;2022-09-09T11:01:47;24.30;60.90
64718;DHT22;62506;46.070;14.492;2022-09-09T11:06:41;24.10;61.20
64718;DHT22;62506;46.070;14.492;2022-09-09T11:09:09;24.10;62.10
64718;DHT22;62506;46.070;14.492;2022-09-09T11:11:42;24.10;63.00
64718;DHT22;62506;46.070;14.492;2022-09-09T11:14:21;24.00;63.20
64718;DHT22;62506;46.070;14.492;2022-09-09T11:16:50;24.00;63.80
64718;DHT22;62506;46.070;14.492;2022-09-09T11:22:12;23.90;64.40
64718;DHT22;62506;46.070;14.492;2022-09-09T11:24:41;23.90;65.00
64718;DHT22;62506;46.070;14.492;2022-09-09T11:27:09;23.80;65.20
64718;DHT22;62506;46.070;14.492;2022-09-09T11:32:13;23.70;66.00
64718;DHT22;62506;46.070;14.492;2022-09-09T11:42:47;23.40;66.00
64718;DHT22;62506;46.070;14.492;2022-09-09T11:45:20;23.40;65.80
64718;DHT22;62506;46.070;14.492;2022-09-09T11:47:54;23.30;66.20
64718;DHT22;62506;46.070;14.492;2022-09-09T11:52:48;23.20;66.70
64718;DHT22;62506;46.070;14.492;2022-09-09T11:55:28;23.20;66.80
64718;DHT22;62506;46.070;14.492;2022-09-09T11:57:58;23.10;66.90
64718;DHT22;62506;46.070;14.492;2022-09-09T12:00:36;23.10;67.20
64718;DHT22;62506;46.070;14.492;2022-09-09T12:03:02;23.00;67.60
64718;DHT22;62506;46.070;14.492;2022-09-09T12:05:38;22.90;68.00
64718;DHT22;62506;46.070;14.492;2022-09-09T12:08:05;22.90;68.20
64718;DHT22;62506;46.070;14.492;2022-09-09T12:10:35;22.90;68.20
64718;DHT22;62506;46.070;14.492;2022-09-09T12:13:16;22.90;68.30
64718;DHT22;62506;46.070;14.492;2022-09-09T12:15:46;23.10;68.20
64718;DHT22;62506;46.070;14.492;2022-09-09T12:18:14;23.10;67.90
64718;DHT22;62506;46.070;14.492;2022-09-09T12:20:40;23.30;67.00
64718;DHT22;62506;46.070;14.492;2022-09-09T12:28:39;23.70;65.80
64718;DHT22;62506;46.070;14.492;2022-09-09T12:33:43;23.80;65.60
64718;DHT22;62506;46.070;14.492;2022-09-09T12:36:18;23.80;65.40
64718;DHT22;62506;46.070;14.492;2022-09-09T12:38:44;23.90;65.40
64718;DHT22;62506;46.070;14.492;2022-09-09T12:41:23;23.90;65.30
64718;DHT22;62506;46.070;14.492;2022-09-09T12:43:49;23.90;65.20
64718;DHT22;62506;46.070;14.492;2022-09-09T12:48:47;23.90;65.10
64718;DHT22;62506;46.070;14.492;2022-09-09T12:51:21;24.00;65.10
64718;DHT22;62506;46.070;14.492;2022-09-09T12:53:50;24.00;65.10
64718;DHT22;62506;46.070;14.492;2022-09-09T12:56:20;24.00;65.10
64718;DHT22;62506;46.070;14.492;2022-09-09T12:58:47;24.00;65.10
64718;DHT22;62506;46.070;14.492;2022-09-09T13:01:26;24.00;65.10
64718;DHT22;62506;46.070;14.492;2022-09-09T13:03:52;24.00;65.10
64718;DHT22;62506;46.070;14.492;2022-09-09T13:08:53;24.00;65.00
64718;DHT22;62506;46.070;14.492;2022-09-09T13:11:20;24.00;64.80
64718;DHT22;62506;46.070;14.492;2022-09-09T13:13:52;24.10;64.90
64718;DHT22;62506;46.070;14.492;2022-09-09T13:16:19;24.10;65.00
64718;DHT22;62506;46.070;14.492;2022-09-09T13:18:45;23.90;66.00
64718;DHT22;62506;46.070;14.492;2022-09-09T13:21:11;23.70;67.00
64718;DHT22;62506;46.070;14.492;2022-09-09T13:23:37;23.60;67.60
64718;DHT22;62506;46.070;14.492;2022-09-09T13:28:29;23.50;68.00
64718;DHT22;62506;46.070;14.492;2022-09-09T13:30:59;23.60;67.40
64718;DHT22;62506;46.070;14.492;2022-09-09T13:33:43;23.80;67.30
64718;DHT22;62506;46.070;14.492;2022-09-09T13:36:09;23.80;66.90
64718;DHT22;62506;46.070;14.492;2022-09-09T13:38:55;23.90;66.70
64718;DHT22;62506;46.070;14.492;2022-09-09T13:41:21;23.90;66.50
64718;DHT22;62506;46.070;14.492;2022-09-09T13:43:48;23.90;66.30
64718;DHT22;62506;46.070;14.492;2022-09-09T13:51:36;24.00;65.90
64718;DHT22;62506;46.070;14.492;2022-09-09T13:54:03;24.00;65.90
64718;DHT22;62506;46.070;14.492;2022-09-09T13:56:28;24.10;65.80
64718;DHT22;62506;46.070;14.492;2022-09-09T13:58:54;24.10;65.80
64718;DHT22;62506;46.070;14.492;2022-09-09T14:01:20;24.10;65.70
64718;DHT22;62506;46.070;14.492;2022-09-09T14:03:45;24.10;66.60
64718;DHT22;62506;46.070;14.492;2022-09-09T14:06:11;24.10;66.50
64718;DHT22;62506;46.070;14.492;2022-09-09T14:08:36;23.90;66.50
64718;DHT22;62506;46.070;14.492;2022-09-09T14:11:05;23.80;66.00
64718;DHT22;62506;46.070;14.492;2022-09-09T14:13:31;23.60;66.50
64718;DHT22;62506;46.070;14.492;2022-09-09T14:15:57;23.50;66.50
64718;DHT22;62506;46.070;14.492;2022-09-09T14:18:22;23.50;67.40
64718;DHT22;62506;46.070;14.492;2022-09-09T14:20:50;23.40;66.90
64718;DHT22;62506;46.070;14.492;2022-09-09T14:23:16;23.30;67.30
64718;DHT22;62506;46.070;14.492;2022-09-09T14:25:45;23.30;67.40
64718;DHT22;62506;46.070;14.492;2022-09-09T14:28:12;23.10;67.70
64718;DHT22;62506;46.070;14.492;2022-09-09T14:30:41;23.00;69.60
64718;DHT22;62506;46.070;14.492;2022-09-09T14:33:07;23.10;68.60
64718;DHT22;62506;46.070;14.492;2022-09-09T14:35:36;23.10;69.70
64718;DHT22;62506;46.070;14.492;2022-09-09T14:38:02;23.10;70.50
64718;DHT22;62506;46.070;14.492;2022-09-09T14:40:28;23.20;70.30
64718;DHT22;62506;46.070;14.492;2022-09-09T14:42:53;23.00;72.00
64718;DHT22;62506;46.070;14.492;2022-09-09T14:45:19;23.00;72.60
64718;DHT22;62506;46.070;14.492;2022-09-09T14:47:46;22.80;72.80
64718;DHT22;62506;46.070;14.492;2022-09-09T14:50:12;23.00;71.90
64718;DHT22;62506;46.070;14.492;2022-09-09T14:52:37;23.10;70.90
64718;DHT22;62506;46.070;14.492;2022-09-09T14:55:03;23.10;69.60
64718;DHT22;62506;46.070;14.492;2022-09-09T14:57:28;23.20;69.60
64718;DHT22;62506;46.070;14.492;2022-09-09T14:59:54;23.20;70.40
64718;DHT22;62506;46.070;14.492;2022-09-09T15:02:19;23.30;70.60
64718;DHT22;62506;46.070;14.492;2022-09-09T15:04:45;23.30;71.20
64718;DHT22;62506;46.070;14.492;2022-09-09T15:07:11;23.30;70.70
64718;DHT22;62506;46.070;14.492;2022-09-09T15:09:36;23.30;70.00
64718;DHT22;62506;46.070;14.492;2022-09-09T15:12:02;23.30;69.40
64718;DHT22;62506;46.070;14.492;2022-09-09T15:14:29;23.40;69.40
64718;DHT22;62506;46.070;14.492;2022-09-09T15:16:56;23.50;69.20
64718;DHT22;62506;46.070;14.492;2022-09-09T15:19:21;23.60;69.20
64718;DHT22;62506;46.070;14.492;2022-09-09T15:21:47;23.70;68.40
64718;DHT22;62506;46.070;14.492;2022-09-09T15:24:13;23.80;68.40
64718;DHT22;62506;46.070;14.492;2022-09-09T15:26:38;23.80;68.30
64718;DHT22;62506;46.070;14.492;2022-09-09T15:29:05;23.80;69.10
64718;DHT22;62506;46.070;14.492;2022-09-09T15:31:31;23.90;68.60
64718;DHT22;62506;46.070;14.492;2022-09-09T15:33:57;23.90;68.20
64718;DHT22;62506;46.070;14.492;2022-09-09T15:36:27;23.90;68.20
64718;DHT22;62506;46.070;14.492;2022-09-09T15:38:53;23.90;68.30
64718;DHT22;62506;46.070;14.492;2022-09-09T15:41:20;23.90;68.20
64718;DHT22;62506;46.070;14.492;2022-09-09T15:43:46;23.90;68.30
64718;DHT22;62506;46.070;14.492;2022-09-09T15:46:29;23.90;68.10
64718;DHT22;62506;46.070;14.492;2022-09-09T15:48:58;23.90;68.00
64718;DHT22;62506;46.070;14.492;2022-09-09T15:51:28;23.90;67.90
64718;DHT22;62506;46.070;14.492;2022-09-09T15:53:54;23.90;67.90
64718;DHT22;62506;46.070;14.492;2022-09-09T15:56:20;23.90;67.90
64718;DHT22;62506;46.070;14.492;2022-09-09T15:58:46;23.90;67.80
64718;DHT22;62506;46.070;14.492;2022-09-09T16:01:11;24.00;67.80
64718;DHT22;62506;46.070;14.492;2022-09-09T16:03:38;24.00;67.70
64718;DHT22;62506;46.070;14.492;2022-09-09T16:06:04;24.00;67.70
64718;DHT22;62506;46.070;14.492;2022-09-09T16:08:37;24.00;67.60
64718;DHT22;62506;46.070;14.492;2022-09-09T16:13:38;24.00;67.60
64718;DHT22;62506;46.070;14.492;2022-09-09T16:16:04;24.00;67.40
64718;DHT22;62506;46.070;14.492;2022-09-09T16:18:37;24.00;67.40
64718;DHT22;62506;46.070;14.492;2022-09-09T16:21:03;24.00;67.40
64718;DHT22;62506;46.070;14.492;2022-09-09T16:23:33;24.00;67.50
64718;DHT22;62506;46.070;14.492;2022-09-09T16:25:59;24.00;68.30
64718;DHT22;62506;46.070;14.492;2022-09-09T16:28:25;24.00;67.40
64718;DHT22;62506;46.070;14.492;2022-09-09T16:30:50;24.00;67.40
64718;DHT22;62506;46.070;14.492;2022-09-09T16:33:16;24.00;67.40
64718;DHT22;62506;46.070;14.492;2022-09-09T16:35:42;24.00;67.30
64718;DHT22;62506;46.070;14.492;2022-09-09T16:38:08;24.00;67.30
64718;DHT22;62506;46.070;14.492;2022-09-09T16:40:37;24.00;67.30
64718;DHT22;62506;46.070;14.492;2022-09-09T16:43:05;24.00;67.30
64718;DHT22;62506;46.070;14.492;2022-09-09T16:45:31;24.00;65.80
64718;DHT22;62506;46.070;14.492;2022-09-09T16:47:58;24.10;67.20
64718;DHT22;62506;46.070;14.492;2022-09-09T16:50:23;24.10;66.80
64718;DHT22;62506;46.070;14.492;2022-09-09T16:52:49;24.10;66.60
64718;DHT22;62506;46.070;14.492;2022-09-09T16:55:16;24.20;66.70
64718;DHT22;62506;46.070;14.492;2022-09-09T16:57:41;24.20;66.50
64718;DHT22;62506;46.070;14.492;2022-09-09T17:00:07;24.20;66.50
64718;DHT22;62506;46.070;14.492;2022-09-09T17:02:32;24.20;67.00
64718;DHT22;62506;46.070;14.492;2022-09-09T17:04:58;24.20;67.20
64718;DHT22;62506;46.070;14.492;2022-09-09T17:07:24;24.20;66.80
64718;DHT22;62506;46.070;14.492;2022-09-09T17:09:50;24.20;66.70
64718;DHT22;62506;46.070;14.492;2022-09-09T17:12:18;24.30;66.60
64718;DHT22;62506;46.070;14.492;2022-09-09T17:14:44;24.30;66.70
64718;DHT22;62506;46.070;14.492;2022-09-09T17:17:10;24.30;66.70
64718;DHT22;62506;46.070;14.492;2022-09-09T17:19:36;24.30;66.80
64718;DHT22;62506;46.070;14.492;2022-09-09T17:22:01;24.30;66.70
64718;DHT22;62506;46.070;14.492;2022-09-09T17:24:27;24.40;66.50
64718;DHT22;62506;46.070;14.492;2022-09-09T17:26:54;24.40;66.50
64718;DHT22;62506;46.070;14.492;2022-09-09T17:29:19;24.50;65.90
64718;DHT22;62506;46.070;14.492;2022-09-09T17:31:45;24.60;65.30
64718;DHT22;62506;46.070;14.492;2022-09-09T17:34:10;24.70;65.10
64718;DHT22;62506;46.070;14.492;2022-09-09T17:36:36;24.70;65.00
64718;DHT22;62506;46.070;14.492;2022-09-09T17:39:03;24.80;64.60